Time;durP1;ratioP1;P1;durP2;ratioP2;P2;SDS_P1;SDS_P2;PMS_P1;PMS_P2;Temp;Humidity;BMP_temperature;BMP_pressure;BME280_temperature;BME280_humidity;BME280_pressure;Samples;Min_cycle;Max_cycle;Signal;HPM_P1;HPM_P2
2021/12/06 00:01:08;;;;;;;;;;;;;;;6.84;73.03;99385.38;5051478;28;19943;-60
2021/12/06 00:03:41;;;;;;;;;;;;;;;6.84;73.36;99385.38;5050369;28;19920;-60
2021/12/06 00:06:08;;;;;;;;;;;;;;;6.83;73.18;99388.06;5050365;28;19921;-59
2021/12/06 00:08:34;;;;;;;;;;;;;;;6.82;73.58;99397.69;5051262;28;19925;-59
2021/12/06 00:11:07;;;;;;;;;;;;;;;6.83;73.27;99396.75;5051488;28;19974;-60
2021/12/06 00:13:36;;;;;;;;;;;;;;;6.86;73.25;99396.63;5050284;28;19920;-59
2021/12/06 00:16:08;;;;;;;;;;;;;;;6.87;73.58;99397.47;5050268;28;19931;-60
2021/12/06 00:18:35;;;;;;;;;;;;;;;6.87;73.13;99398.31;5051312;28;19924;-61
2021/12/06 00:21:02;;;;;;;;;;;;;;;6.87;73.32;99400.06;5050934;28;19925;-59
2021/12/06 00:23:28;;;;;;;;;;;;;;;6.88;73.65;99397.38;5051175;28;19925;-62
2021/12/06 00:25:56;;;;;;;;;;;;;;;6.89;73.23;99404.31;5051428;28;19921;-60
2021/12/06 00:28:23;;;;;;;;;;;;;;;6.89;73.53;99401.69;5051350;28;19925;-62
2021/12/06 00:30:50;;;;;;;;;;;;;;;6.88;73.14;99405.25;5050743;28;19978;-60
2021/12/06 00:33:17;;;;;;;;;;;;;;;6.88;73.13;99407.03;5049612;28;19925;-60
2021/12/06 00:35:44;;;;;;;;;;;;;;;6.88;73.03;99413.09;5051442;28;19956;-60
2021/12/06 00:38:10;;;;;;;;;;;;;;;6.88;73.50;99407.84;5051368;28;19931;-59
2021/12/06 00:40:39;;;;;;;;;;;;;;;6.88;73.22;99415.72;5050816;28;19967;-62
2021/12/06 00:43:06;;;;;;;;;;;;;;;6.88;73.20;99414.88;5049806;28;19924;-59
2021/12/06 00:45:32;;;;;;;;;;;;;;;6.86;73.17;99409.72;5051002;28;19921;-61
2021/12/06 00:48:00;;;;;;;;;;;;;;;6.86;72.94;99416.69;5050963;28;19932;-61
2021/12/06 00:50:27;;;;;;;;;;;;;;;6.86;73.07;99421.94;5050928;28;20387;-58
2021/12/06 00:52:54;;;;;;;;;;;;;;;6.84;73.09;99419.38;5051044;28;19966;-60
2021/12/06 00:55:22;;;;;;;;;;;;;;;6.84;73.11;99421.16;5050944;28;19967;-59
2021/12/06 00:57:52;;;;;;;;;;;;;;;6.83;73.24;99419.44;5049810;28;19924;-59
2021/12/06 01:00:22;;;;;;;;;;;;;;;6.81;72.99;99421.31;5049293;28;19931;-59
2021/12/06 01:02:48;;;;;;;;;;;;;;;6.80;72.99;99424.84;5050910;28;20380;-60
2021/12/06 01:05:15;;;;;;;;;;;;;;;6.77;72.89;99431.06;5050813;28;19966;-59
2021/12/06 01:07:42;;;;;;;;;;;;;;;6.76;72.90;99429.34;5051037;28;19920;-62
2021/12/06 01:10:09;;;;;;;;;;;;;;;6.74;73.20;99436.44;5050517;28;19925;-60
2021/12/06 01:12:36;;;;;;;;;;;;;;;6.73;72.96;99434.75;5050568;28;19932;-61
2021/12/06 01:15:04;;;;;;;;;;;;;;;6.72;72.97;99436.50;5050628;28;19944;-60
2021/12/06 01:17:30;;;;;;;;;;;;;;;6.72;73.28;99438.25;5050946;28;19921;-60
2021/12/06 01:19:57;;;;;;;;;;;;;;;6.71;72.89;99437.44;5050634;28;19921;-59
2021/12/06 01:22:30;;;;;;;;;;;;;;;6.70;73.06;99437.50;5050819;28;19928;-59
2021/12/06 01:25:01;;;;;;;;;;;;;;;6.70;73.35;99435.75;5050747;28;19924;-61
2021/12/06 01:40:46;;;;;;;;;;;;;;;6.58;73.02;99438.91;5050114;28;19937;-62
2021/12/06 01:43:12;;;;;;;;;;;;;;;6.57;72.98;99452.88;5050545;28;19932;-61
2021/12/06 01:45:39;;;;;;;;;;;;;;;6.56;73.18;99467.75;5054043;28;19924;-59
2021/12/06 01:48:05;;;;;;;;;;;;;;;6.54;73.39;99469.56;5054231;28;19920;-59
2021/12/06 01:50:32;;;;;;;;;;;;;;;6.54;73.06;99469.56;5054236;28;19928;-59
2021/12/06 01:53:00;;;;;;;;;;;;;;;6.55;73.14;99470.44;5054197;28;19951;-59
2021/12/06 01:55:29;;;;;;;;;;;;;;;6.55;73.44;99467.81;5054181;28;19925;-60
2021/12/06 01:57:57;;;;;;;;;;;;;;;6.57;73.22;99471.19;5054057;28;19921;-60
2021/12/06 02:00:27;;;;;;;;;;;;;;;6.57;73.46;99458.13;5052602;28;19928;-61
2021/12/06 02:02:53;;;;;;;;;;;;;;;6.57;73.23;99468.56;5053815;28;20003;-61
2021/12/06 02:05:20;;;;;;;;;;;;;;;6.57;73.19;99472.06;5054096;28;19924;-60
2021/12/06 02:07:47;;;;;;;;;;;;;;;6.58;73.11;99472.91;5053731;28;19930;-62
2021/12/06 02:10:14;;;;;;;;;;;;;;;6.55;73.05;99476.53;5053984;28;19924;-60
2021/12/06 02:12:40;;;;;;;;;;;;;;;6.53;73.16;99485.34;5053691;28;19924;-61
2021/12/06 02:15:20;;;;;;;;;;;;;;;6.51;73.42;99493.25;5053703;28;19932;-60
2021/12/06 02:17:56;;;;;;;;;;;;;;;6.49;73.25;99495.09;5054032;28;19924;-62
2021/12/06 02:20:27;;;;;;;;;;;;;;;6.48;73.50;99490.78;5053440;28;19930;-62
2021/12/06 02:22:54;;;;;;;;;;;;;;;6.47;73.27;99496.94;5052571;28;19924;-61
2021/12/06 02:25:21;;;;;;;;;;;;;;;6.46;73.34;99492.59;5053724;28;19921;-60
2021/12/06 02:27:49;;;;;;;;;;;;;;;6.42;73.19;99488.44;5053194;28;19947;-61
2021/12/06 02:30:16;;;;;;;;;;;;;;;6.42;73.15;99488.44;5051904;28;19925;-61
2021/12/06 02:32:43;;;;;;;;;;;;;;;6.41;73.54;99490.19;5053350;28;19974;-61
2021/12/06 02:35:14;;;;;;;;;;;;;;;6.41;73.51;99489.34;5053467;28;19974;-62
2021/12/06 02:37:41;;;;;;;;;;;;;;;6.41;73.62;99486.72;5053193;28;19924;-63
2021/12/06 02:40:13;;;;;;;;;;;;;;;6.39;73.43;99484.16;5053123;28;20300;-60
2021/12/06 02:42:39;;;;;;;;;;;;;;;6.40;73.67;99496.34;5051895;28;19963;-60
2021/12/06 02:45:08;;;;;;;;;;;;;;;6.39;73.48;99490.25;5052984;28;19929;-61
2021/12/06 02:47:34;;;;;;;;;;;;;;;6.38;73.29;99488.56;5053109;28;20324;-61
2021/12/06 02:50:07;;;;;;;;;;;;;;;6.38;73.29;99492.94;5052838;28;20589;-60
2021/12/06 02:52:33;;;;;;;;;;;;;;;6.37;73.51;99492.13;5053029;28;19920;-59
2021/12/06 02:55:07;;;;;;;;;;;;;;;6.37;73.54;99488.63;5052685;28;19925;-62
2021/12/06 02:57:37;;;;;;;;;;;;;;;6.38;73.53;99499.03;5051768;28;20292;-60
2021/12/06 03:00:08;;;;;;;;;;;;;;;6.39;73.71;99505.09;5053038;28;20290;-60
2021/12/06 03:02:35;;;;;;;;;;;;;;;6.40;73.47;99506.81;5051813;28;19929;-62
2021/12/06 03:05:02;;;;;;;;;;;;;;;6.39;73.59;99498.09;5051498;28;19921;-60
2021/12/06 03:07:29;;;;;;;;;;;;;;;6.39;73.56;99515.53;5052770;28;19929;-61
2021/12/06 03:09:56;;;;;;;;;;;;;;;6.40;73.68;99519.88;5052445;28;19928;-61
2021/12/06 03:12:24;;;;;;;;;;;;;;;6.39;73.33;99519.03;5051240;28;19931;-61
2021/12/06 03:14:56;;;;;;;;;;;;;;;6.42;73.32;99517.22;5052742;28;19925;-61
2021/12/06 03:17:24;;;;;;;;;;;;;;;6.42;73.61;99514.59;5052368;28;19921;-60
2021/12/06 03:19:50;;;;;;;;;;;;;;;6.41;73.64;99512.88;5052257;28;20305;-62
2021/12/06 03:22:18;;;;;;;;;;;;;;;6.39;73.35;99521.63;5052334;28;19936;-60
2021/12/06 03:24:45;;;;;;;;;;;;;;;6.40;73.22;99532.97;5051258;28;19920;-63
2021/12/06 03:27:12;;;;;;;;;;;;;;;6.39;73.69;99533.84;5052546;28;19928;-61
2021/12/06 03:29:39;;;;;;;;;;;;;;;6.40;73.62;99546.03;5051983;28;19966;-62
2021/12/06 03:32:06;;;;;;;;;;;;;;;6.39;73.49;99553.00;5052122;28;19935;-61
2021/12/06 03:34:35;;;;;;;;;;;;;;;6.38;73.23;99553.94;5052121;28;19920;-62
2021/12/06 03:37:03;;;;;;;;;;;;;;;6.39;73.55;99546.91;5052374;28;19924;-60
2021/12/06 03:39:34;;;;;;;;;;;;;;;6.40;73.30;99546.03;5052047;28;20783;-60
2021/12/06 03:42:02;;;;;;;;;;;;;;;6.40;73.55;99551.25;5052158;28;20385;-62
2021/12/06 03:44:29;;;;;;;;;;;;;;;6.39;73.54;99547.78;5052161;28;20227;-60
2021/12/06 03:46:57;;;;;;;;;;;;;;;6.39;73.40;99545.16;5051826;28;19920;-62
2021/12/06 03:49:23;;;;;;;;;;;;;;;6.38;73.43;99540.84;5051750;28;19971;-61
2021/12/06 03:51:50;;;;;;;;;;;;;;;6.37;73.40;99548.75;5051964;28;19932;-61
2021/12/06 03:54:19;;;;;;;;;;;;;;;6.35;73.38;99554.06;5051882;28;19921;-59
2021/12/06 03:56:46;;;;;;;;;;;;;;;6.33;73.35;99553.28;5051824;28;20412;-60
2021/12/06 03:59:13;;;;;;;;;;;;;;;6.32;73.33;99555.97;5050285;28;19928;-60
2021/12/06 04:01:39;;;;;;;;;;;;;;;6.31;73.50;99555.09;5051612;28;20327;-63
2021/12/06 04:04:08;;;;;;;;;;;;;;;6.31;73.06;99557.72;5051493;28;19920;-61
2021/12/06 04:06:35;;;;;;;;;;;;;;;6.31;73.42;99552.50;5050994;28;20281;-60
2021/12/06 04:09:03;;;;;;;;;;;;;;;6.31;73.27;99560.31;5050367;28;19928;-61
2021/12/06 04:11:30;;;;;;;;;;;;;;;6.30;73.29;99550.78;5050156;28;19970;-61
2021/12/06 04:13:57;;;;;;;;;;;;;;;6.29;73.48;99550.84;5051608;28;19924;-61
2021/12/06 04:16:23;;;;;;;;;;;;;;;6.26;73.34;99562.28;5051373;28;19967;-61
2021/12/06 04:18:50;;;;;;;;;;;;;;;6.23;73.16;99559.81;5051330;28;20643;-62
2021/12/06 04:21:18;;;;;;;;;;;;;;;6.22;73.27;99560.72;5051047;28;19931;-62
2021/12/06 04:23:44;;;;;;;;;;;;;;;6.20;73.41;99570.41;5051387;28;19924;-62
2021/12/06 04:26:11;;;;;;;;;;;;;;;6.18;73.37;99572.22;5051280;28;19925;-61
2021/12/06 04:28:43;;;;;;;;;;;;;;;6.16;73.35;99582.72;5051332;28;19927;-61
2021/12/06 04:31:09;;;;;;;;;;;;;;;6.14;73.40;99579.34;5051141;28;19931;-60
2021/12/06 04:33:36;;;;;;;;;;;;;;;6.13;73.33;99593.31;5051278;28;19933;-62
2021/12/06 04:36:04;;;;;;;;;;;;;;;6.10;73.10;99594.28;5051151;28;19924;-61
2021/12/06 04:38:30;;;;;;;;;;;;;;;6.07;73.08;99586.59;5050025;28;19924;-62
2021/12/06 04:40:57;;;;;;;;;;;;;;;6.06;73.38;99589.25;5050971;28;19974;-61
2021/12/06 04:43:23;;;;;;;;;;;;;;;6.04;73.41;99591.94;5051239;28;19924;-60
2021/12/06 04:45:50;;;;;;;;;;;;;;;6.05;73.41;99595.41;5051350;28;19971;-60
2021/12/06 04:48:16;;;;;;;;;;;;;;;6.02;73.13;99598.94;5050992;28;20376;-62
2021/12/06 04:50:43;;;;;;;;;;;;;;;6.00;73.03;99596.41;5050801;28;20331;-61
2021/12/06 04:53:12;;;;;;;;;;;;;;;5.98;73.08;99600.84;5051040;28;19924;-60
2021/12/06 04:55:38;;;;;;;;;;;;;;;5.98;73.40;99605.22;5049542;28;19932;-60
2021/12/06 04:58:07;;;;;;;;;;;;;;;5.97;73.26;99598.28;5050645;28;19979;-62
2021/12/06 05:00:36;;;;;;;;;;;;;;;5.95;73.20;99606.19;5050884;28;19924;-60
2021/12/06 05:03:05;;;;;;;;;;;;;;;5.92;73.32;99611.53;5050916;28;19982;-62
2021/12/06 05:05:47;;;;;;;;;;;;;;;5.89;73.38;99619.50;5050934;28;19924;-60
2021/12/06 05:08:19;;;;;;;;;;;;;;;5.87;73.14;99621.34;5050925;28;19967;-61
2021/12/06 05:10:46;;;;;;;;;;;;;;;5.84;73.21;99622.28;5049435;28;19948;-60
2021/12/06 05:13:12;;;;;;;;;;;;;;;5.82;73.46;99629.34;5050928;28;19932;-60
2021/12/06 05:15:39;;;;;;;;;;;;;;;5.80;73.53;99635.53;5050729;28;19968;-60
2021/12/06 05:18:06;;;;;;;;;;;;;;;5.80;73.26;99638.97;5051832;28;19924;-62
2021/12/06 05:20:34;;;;;;;;;;;;;;;5.80;73.34;99636.38;5054489;28;19928;-61
2021/12/06 05:23:02;;;;;;;;;;;;;;;5.80;73.30;99633.75;5053268;28;19921;-60
2021/12/06 05:25:29;;;;;;;;;;;;;;;5.80;73.47;99631.16;5054604;28;19928;-60
2021/12/06 05:27:58;;;;;;;;;;;;;;;5.80;73.26;99640.75;5054861;28;19924;-62
2021/12/06 05:30:26;;;;;;;;;;;;;;;5.79;73.43;99647.75;5053073;28;19928;-60
2021/12/06 05:32:53;;;;;;;;;;;;;;;5.79;73.35;99637.28;5053319;28;19920;-60
2021/12/06 05:35:20;;;;;;;;;;;;;;;5.81;73.60;99637.22;5086439;28;19931;-61
2021/12/06 05:37:48;;;;;;;;;;;;;;;5.81;73.48;99648.53;5053424;28;19932;-60
2021/12/06 05:40:21;;;;;;;;;;;;;;;5.82;73.44;99647.63;5054124;28;20368;-60
2021/12/06 05:42:48;;;;;;;;;;;;;;;5.83;73.62;99651.09;5054316;28;20452;-61
2021/12/06 05:45:16;;;;;;;;;;;;;;;5.82;73.36;99652.84;5054389;28;19974;-62
2021/12/06 05:47:43;;;;;;;;;;;;;;;5.80;73.37;99659.88;5054127;28;19924;-61
2021/12/06 05:50:15;;;;;;;;;;;;;;;5.80;73.52;99659.06;5052751;28;19932;-62
2021/12/06 05:52:43;;;;;;;;;;;;;;;5.80;73.52;99659.06;5054215;28;19920;-60
2021/12/06 05:55:10;;;;;;;;;;;;;;;5.82;73.48;99662.44;5054333;28;19920;-61
2021/12/06 05:57:40;;;;;;;;;;;;;;;5.84;73.37;99663.25;5054031;28;19924;-60
2021/12/06 06:00:10;;;;;;;;;;;;;;;5.86;73.73;99664.88;5053910;28;19940;-61
2021/12/06 06:02:36;;;;;;;;;;;;;;;5.88;73.72;99662.22;5054036;28;19921;-61
2021/12/06 06:05:04;;;;;;;;;;;;;;;5.91;73.69;99661.25;5053998;28;20351;-61
2021/12/06 06:07:30;;;;;;;;;;;;;;;5.92;73.63;99657.72;5052750;28;20377;-62
2021/12/06 06:09:56;;;;;;;;;;;;;;;5.92;73.37;99660.31;5053634;28;19943;-61
2021/12/06 06:12:23;;;;;;;;;;;;;;;5.93;73.57;99664.63;5053520;28;19931;-62
2021/12/06 06:14:49;;;;;;;;;;;;;;;5.93;73.61;99669.84;5052486;28;20300;-60
2021/12/06 06:17:19;;;;;;;;;;;;;;;5.92;73.40;99669.03;5054048;28;19939;-61
2021/12/06 06:19:48;;;;;;;;;;;;;;;5.93;73.29;99675.09;5053340;28;19928;-61
2021/12/06 06:22:14;;;;;;;;;;;;;;;5.93;73.47;99664.63;5053411;28;20344;-63
2021/12/06 06:24:41;;;;;;;;;;;;;;;5.93;73.23;99664.63;5053553;28;19925;-61
2021/12/06 06:27:07;;;;;;;;;;;;;;;5.93;73.37;99664.63;5053400;28;19927;-61
2021/12/06 06:29:35;;;;;;;;;;;;;;;5.92;73.30;99668.16;5052575;28;19924;-61
2021/12/06 06:32:02;;;;;;;;;;;;;;;5.92;73.37;99682.09;5052230;28;19921;-60
2021/12/06 06:34:29;;;;;;;;;;;;;;;5.92;73.22;99681.22;5053495;28;20384;-62
2021/12/06 06:36:55;;;;;;;;;;;;;;;5.91;73.52;99675.13;5053526;28;19924;-60
2021/12/06 06:39:22;;;;;;;;;;;;;;;5.92;73.17;99673.38;5053155;28;19932;-60
2021/12/06 06:41:49;;;;;;;;;;;;;;;5.90;73.44;99672.63;5053221;28;19950;-63
2021/12/06 06:44:17;;;;;;;;;;;;;;;5.87;73.11;99676.19;5052105;28;19921;-59
2021/12/06 06:46:44;;;;;;;;;;;;;;;5.84;73.16;99676.31;5053443;28;19928;-60
2021/12/06 06:49:12;;;;;;;;;;;;;;;5.83;73.29;99685.06;5052715;28;19925;-60
2021/12/06 06:51:39;;;;;;;;;;;;;;;5.83;73.23;99687.69;5051568;28;20765;-59
2021/12/06 06:54:06;;;;;;;;;;;;;;;5.82;73.28;99685.94;5052489;28;19924;-60
2021/12/06 06:56:33;;;;;;;;;;;;;;;5.81;73.51;99695.56;5052874;28;19967;-59
2021/12/06 06:59:00;;;;;;;;;;;;;;;5.81;73.59;99694.69;5053215;28;19940;-61
2021/12/06 07:01:26;;;;;;;;;;;;;;;5.82;73.45;99694.66;5052698;28;19921;-61
2021/12/06 07:03:54;;;;;;;;;;;;;;;5.82;73.38;99692.03;5052727;28;20274;-63
2021/12/06 07:06:21;;;;;;;;;;;;;;;5.84;73.41;99695.41;5053178;28;19924;-59
2021/12/06 07:08:48;;;;;;;;;;;;;;;5.85;73.45;99691.94;5052064;28;19921;-60
2021/12/06 07:11:15;;;;;;;;;;;;;;;5.86;73.57;99688.41;5052509;28;20304;-59
2021/12/06 07:13:43;;;;;;;;;;;;;;;5.88;73.25;99685.72;5052380;28;19928;-62
2021/12/06 07:16:10;;;;;;;;;;;;;;;5.89;73.60;99689.16;5051060;28;20515;-61
2021/12/06 07:18:37;;;;;;;;;;;;;;;5.90;73.48;99683.06;5052461;28;20423;-60
2021/12/06 07:21:05;;;;;;;;;;;;;;;5.90;73.66;99678.66;5050376;28;19936;-63
2021/12/06 07:23:32;;;;;;;;;;;;;;;5.89;73.27;99676.97;5050738;28;19924;-60
2021/12/06 07:25:59;;;;;;;;;;;;;;;5.86;73.18;99669.25;5050993;28;19950;-60
2021/12/06 07:28:26;;;;;;;;;;;;;;;5.83;73.20;99679.84;5052417;28;19951;-60
2021/12/06 07:30:52;;;;;;;;;;;;;;;5.79;73.19;99676.47;5052296;28;19929;-62
2021/12/06 07:33:19;;;;;;;;;;;;;;;5.77;72.94;99669.59;5052204;28;19920;-60
2021/12/06 07:35:45;;;;;;;;;;;;;;;5.74;73.33;99687.13;5052401;28;19924;-60
2021/12/06 07:38:12;;;;;;;;;;;;;;;5.73;73.04;99679.34;5051609;28;19935;-64
2021/12/06 07:40:39;;;;;;;;;;;;;;;5.71;73.04;99686.34;5051455;28;19925;-60
2021/12/06 07:43:05;;;;;;;;;;;;;;;5.71;73.27;99689.84;5051251;28;19920;-59
2021/12/06 07:45:32;;;;;;;;;;;;;;;5.71;73.33;99691.59;5051232;28;19924;-60
2021/12/06 07:47:58;;;;;;;;;;;;;;;5.72;73.49;99694.13;5051879;28;19928;-62
2021/12/06 07:50:25;;;;;;;;;;;;;;;5.72;73.44;99698.53;5051219;28;19925;-61
2021/12/06 07:52:52;;;;;;;;;;;;;;;5.71;73.29;99695.06;5051245;28;19940;-61
2021/12/06 07:55:22;;;;;;;;;;;;;;;5.70;73.17;99695.09;5051715;28;19928;-61
2021/12/06 07:57:48;;;;;;;;;;;;;;;5.68;73.29;99686.50;5050358;28;19920;-62
2021/12/06 08:00:18;;;;;;;;;;;;;;;5.66;73.21;99683.94;5051420;28;19921;-61
2021/12/06 08:02:45;;;;;;;;;;;;;;;5.66;73.24;99688.28;5050485;28;19931;-62
2021/12/06 08:05:30;;;;;;;;;;;;;;;5.66;73.61;99685.69;5051577;28;19924;-60
2021/12/06 08:07:57;;;;;;;;;;;;;;;5.67;73.35;99693.47;5051239;28;19974;-62
2021/12/06 08:10:24;;;;;;;;;;;;;;;5.69;73.80;99696.84;5051282;28;19927;-62
2021/12/06 08:12:51;;;;;;;;;;;;;;;5.73;73.86;99689.78;5051766;28;19921;-59
2021/12/06 08:15:17;;;;;;;;;;;;;;;5.76;73.81;99694.91;5051428;28;19962;-61
2021/12/06 08:17:44;;;;;;;;;;;;;;;5.79;73.82;99684.31;5051064;28;19924;-60
2021/12/06 08:20:11;;;;;;;;;;;;;;;5.82;73.92;99694.66;5051088;28;19927;-62
2021/12/06 08:22:37;;;;;;;;;;;;;;;5.85;73.88;99683.22;5051397;28;19924;-62
2021/12/06 08:25:05;;;;;;;;;;;;;;;5.89;73.91;99691.78;5051482;28;19920;-61
2021/12/06 08:27:31;;;;;;;;;;;;;;;5.91;73.79;99679.53;5051596;28;19925;-61
2021/12/06 08:29:58;;;;;;;;;;;;;;;5.95;73.75;99683.72;5051538;28;19943;-61
2021/12/06 08:32:24;;;;;;;;;;;;;;;5.98;73.53;99688.84;5050615;28;19920;-60
2021/12/06 08:34:51;;;;;;;;;;;;;;;5.99;73.72;99688.75;5051003;28;19924;-60
2021/12/06 08:37:18;;;;;;;;;;;;;;;6.01;73.62;99699.16;5051434;28;20339;-60
2021/12/06 08:39:44;;;;;;;;;;;;;;;6.04;73.44;99692.97;5050755;28;19921;-61
2021/12/06 08:42:11;;;;;;;;;;;;;;;6.04;73.29;99693.84;5050568;28;20499;-61
2021/12/06 08:44:37;;;;;;;;;;;;;;;6.06;73.44;99692.00;5050881;28;19990;-63
2021/12/06 08:47:04;;;;;;;;;;;;;;;6.08;73.72;99697.19;5050953;28;20270;-62
2021/12/06 08:49:32;;;;;;;;;;;;;;;6.08;73.66;99703.28;5050340;28;19948;-60
2021/12/06 08:51:58;;;;;;;;;;;;;;;6.09;73.42;99694.50;5050960;28;19943;-61
2021/12/06 08:54:27;;;;;;;;;;;;;;;6.07;73.23;99698.97;5050406;28;19928;-60
2021/12/06 08:56:55;;;;;;;;;;;;;;;6.06;73.37;99697.22;5049717;28;19947;-61
2021/12/06 08:59:22;;;;;;;;;;;;;;;6.08;73.32;99705.03;5050947;28;20742;-62
2021/12/06 09:01:49;;;;;;;;;;;;;;;6.09;73.37;99704.13;5049894;28;19922;-61
2021/12/06 09:04:39;;;;;;;;;;;;;;;6.11;73.43;99704.91;5051148;28;19921;-61
2021/12/06 09:07:11;;;;;;;;;;;;;;;6.12;73.58;99714.44;5049320;28;19924;-60
2021/12/06 09:09:49;;;;;;;;;;;;;;;6.15;73.39;99713.47;5049389;28;19921;-60
2021/12/06 09:12:17;;;;;;;;;;;;;;;6.18;73.38;99705.50;5050650;28;20530;-61
2021/12/06 09:14:44;;;;;;;;;;;;;;;6.22;73.60;99701.88;5049660;28;19959;-60
2021/12/06 09:17:12;;;;;;;;;;;;;;;6.24;73.79;99703.50;5050691;28;19933;-60
2021/12/06 09:19:39;;;;;;;;;;;;;;;6.28;73.90;99699.00;5050624;28;19924;-60
2021/12/06 09:22:06;;;;;;;;;;;;;;;6.31;73.78;99698.88;5050684;28;19943;-60
2021/12/06 09:24:32;;;;;;;;;;;;;;;6.35;73.48;99692.63;5050661;28;20672;-60
2021/12/06 09:27:00;;;;;;;;;;;;;;;6.39;73.58;99688.97;5050953;28;19958;-60
2021/12/06 09:29:27;;;;;;;;;;;;;;;6.42;73.42;99692.38;5050652;28;19986;-61
2021/12/06 09:31:55;;;;;;;;;;;;;;;6.43;73.23;99679.22;5050426;28;20015;-61
2021/12/06 09:34:21;;;;;;;;;;;;;;;6.45;73.17;99679.16;5049477;28;20464;-61
2021/12/06 09:36:48;;;;;;;;;;;;;;;6.47;73.33;99678.19;5050350;28;19983;-60
2021/12/06 09:39:14;;;;;;;;;;;;;;;6.51;73.38;99681.53;5050249;28;19924;-60
2021/12/06 09:41:41;;;;;;;;;;;;;;;6.55;73.67;99672.66;5050406;28;20265;-60
2021/12/06 09:44:09;;;;;;;;;;;;;;;6.59;73.46;99670.75;5050383;28;19921;-60
2021/12/06 09:46:37;;;;;;;;;;;;;;;6.63;73.83;99670.56;5049068;28;19928;-59
2021/12/06 09:49:09;;;;;;;;;;;;;;;6.69;73.79;99679.06;5049090;28;19967;-60
2021/12/06 09:51:37;;;;;;;;;;;;;;;6.74;73.68;99672.75;5049070;28;19921;-60
2021/12/06 09:54:04;;;;;;;;;;;;;;;6.78;73.61;99674.28;5049133;28;20297;-59
2021/12/06 09:56:32;;;;;;;;;;;;;;;6.83;73.60;99684.56;5050555;28;19921;-59
2021/12/06 09:59:01;;;;;;;;;;;;;;;6.87;73.41;99673.03;5049220;28;20377;-62
2021/12/06 10:01:30;;;;;;;;;;;;;;;6.91;73.42;99666.75;5050163;28;19928;-60
2021/12/06 10:03:58;;;;;;;;;;;;;;;6.96;73.66;99665.72;5050227;28;19920;-60
2021/12/06 10:06:26;;;;;;;;;;;;;;;6.99;73.59;99666.44;5051940;28;19921;-59
2021/12/06 10:08:54;;;;;;;;;;;;;;;7.03;73.50;99675.84;5053858;28;19925;-59
2021/12/06 10:11:21;;;;;;;;;;;;;;;7.06;73.55;99672.25;5053415;28;20384;-60
2021/12/06 10:13:48;;;;;;;;;;;;;;;7.09;73.51;99677.34;5053763;28;19925;-61
2021/12/06 10:16:15;;;;;;;;;;;;;;;7.14;73.47;99679.78;5053492;28;20007;-60
2021/12/06 10:18:42;;;;;;;;;;;;;;;7.17;73.62;99680.47;5053631;28;19962;-63
2021/12/06 10:21:09;;;;;;;;;;;;;;;7.21;73.46;99681.19;5053555;28;19928;-61
2021/12/06 10:23:37;;;;;;;;;;;;;;;7.24;73.48;99675.81;5053920;28;19921;-61
2021/12/06 10:26:07;;;;;;;;;;;;;;;7.27;73.48;99678.31;5053489;28;19928;-62
2021/12/06 10:28:34;;;;;;;;;;;;;;;7.29;73.40;99673.84;5052403;28;19928;-60
2021/12/06 10:31:04;;;;;;;;;;;;;;;7.31;73.02;99660.69;5052163;28;20380;-60
2021/12/06 10:33:40;;;;;;;;;;;;;;;7.33;73.22;99663.25;5053601;28;19920;-61
2021/12/06 10:36:10;;;;;;;;;;;;;;;7.34;73.16;99660.56;5053679;28;20296;-59
2021/12/06 10:38:38;;;;;;;;;;;;;;;7.35;73.10;99657.00;5053321;28;19963;-59
2021/12/06 10:41:08;;;;;;;;;;;;;;;7.38;73.17;99662.13;5051945;28;19928;-60
2021/12/06 10:43:36;;;;;;;;;;;;;;;7.39;73.22;99661.19;5052320;28;19927;-60
2021/12/06 10:46:03;;;;;;;;;;;;;;;7.43;72.94;99662.75;5051894;28;19921;-62
2021/12/06 10:48:31;;;;;;;;;;;;;;;7.41;69.14;99664.56;5053101;28;19921;-59
2021/12/06 10:51:05;;;;;;;;;;;;;;;7.39;70.14;99652.47;5053038;28;19925;-60
2021/12/06 10:53:39;;;;;;;;;;;;;;;7.36;71.01;99650.03;5052980;28;19921;-60
2021/12/06 10:56:15;;;;;;;;;;;;;;;7.32;71.37;99646.66;5053211;28;19932;-60
2021/12/06 10:58:42;;;;;;;;;;;;;;;7.29;71.69;99644.22;5052015;28;19928;-59
2021/12/06 11:01:11;;;;;;;;;;;;;;;7.26;71.93;99636.47;5052743;28;19924;-60
2021/12/06 11:03:40;;;;;;;;;;;;;;;7.24;72.32;99633.06;5052815;28;19925;-59
2021/12/06 11:06:10;;;;;;;;;;;;;;;7.27;72.30;99630.31;5052922;28;19947;-61
2021/12/06 11:08:38;;;;;;;;;;;;;;;7.28;70.73;99634.63;5051348;28;20403;-60
2021/12/06 11:11:10;;;;;;;;;;;;;;;7.28;70.92;99635.50;5051601;28;19932;-61
2021/12/06 11:13:38;;;;;;;;;;;;;;;7.25;70.97;99632.19;5052497;28;19920;-59
2021/12/06 11:16:08;;;;;;;;;;;;;;;7.20;71.10;99628.88;5052631;28;19931;-60
2021/12/06 11:18:37;;;;;;;;;;;;;;;7.16;71.32;99626.44;5052575;28;19924;-60
2021/12/06 11:21:05;;;;;;;;;;;;;;;7.12;71.72;99624.00;5052260;28;19924;-60
2021/12/06 11:23:31;;;;;;;;;;;;;;;7.11;71.71;99624.94;5052592;28;19929;-61
2021/12/06 11:26:03;;;;;;;;;;;;;;;7.09;72.11;99613.66;5052844;28;20015;-60
2021/12/06 11:28:31;;;;;;;;;;;;;;;7.11;72.23;99612.69;5052750;28;19924;-61
2021/12/06 11:31:01;;;;;;;;;;;;;;;7.13;72.25;99617.84;5052319;28;19921;-61
2021/12/06 11:33:29;;;;;;;;;;;;;;;7.15;72.17;99616.84;5050954;28;19921;-62
2021/12/06 11:35:56;;;;;;;;;;;;;;;7.16;71.94;99615.97;5052142;28;19924;-60
2021/12/06 11:38:22;;;;;;;;;;;;;;;7.17;72.15;99607.19;5052082;28;19975;-59
2021/12/06 11:40:54;;;;;;;;;;;;;;;7.20;71.66;99605.31;5051961;28;20380;-61
2021/12/06 11:43:21;;;;;;;;;;;;;;;7.21;71.78;99607.06;5050673;28;19932;-60
2021/12/06 11:45:50;;;;;;;;;;;;;;;7.21;72.03;99601.81;5052257;28;19936;-60
2021/12/06 11:48:22;;;;;;;;;;;;;;;7.23;72.26;99599.97;5052085;28;19927;-60
2021/12/06 11:50:50;;;;;;;;;;;;;;;7.25;71.88;99598.97;5050731;28;19928;-61
2021/12/06 11:53:19;;;;;;;;;;;;;;;7.26;72.12;99584.94;5050642;28;19944;-59
2021/12/06 11:55:50;;;;;;;;;;;;;;;7.27;71.21;99575.34;5050673;28;20380;-62
2021/12/06 11:58:21;;;;;;;;;;;;;;;7.28;71.48;99579.66;5050928;28;19927;-60
2021/12/06 12:01:01;;;;;;;;;;;;;;;7.27;71.46;99573.59;5050440;28;20284;-61
2021/12/06 12:03:30;;;;;;;;;;;;;;;7.36;72.31;99567.06;5051654;28;20387;-62
2021/12/06 12:05:57;;;;;;;;;;;;;;;7.56;73.62;99565.28;5050771;28;19925;-60
2021/12/06 12:08:23;;;;;;;;;;;;;;;7.79;71.16;99558.06;5051470;28;19977;-61
2021/12/06 12:10:51;;;;;;;;;;;;;;;7.93;70.56;99563.47;5051660;28;19963;-60
2021/12/06 12:13:21;;;;;;;;;;;;;;;8.03;70.66;99561.25;5050054;28;19920;-60
2021/12/06 12:15:48;;;;;;;;;;;;;;;8.13;70.52;99559.03;5050550;28;19928;-61
2021/12/06 12:18:14;;;;;;;;;;;;;;;8.25;71.33;99564.56;5051252;28;19927;-62
2021/12/06 12:20:49;;;;;;;;;;;;;;;8.33;70.27;99555.41;5051514;28;20011;-61
2021/12/06 12:23:16;;;;;;;;;;;;;;;8.37;68.53;99561.31;5050065;28;19921;-60
2021/12/06 12:26:01;;;;;;;;;;;;;;;8.38;69.01;99565.66;5051344;28;20308;-61
2021/12/06 12:28:37;;;;;;;;;;;;;;;8.34;69.15;99564.13;5050716;28;19921;-60
2021/12/06 12:31:06;;;;;;;;;;;;;;;8.28;69.77;99564.41;5051320;28;20004;-61
2021/12/06 12:33:33;;;;;;;;;;;;;;;8.23;70.12;99559.44;5051115;28;19925;-62
2021/12/06 12:36:20;;;;;;;;;;;;;;;8.21;70.70;99566.50;5051194;28;20712;-60
2021/12/06 12:38:48;;;;;;;;;;;;;;;8.21;71.32;99554.25;5050118;28;20023;-60
2021/12/06 12:41:16;;;;;;;;;;;;;;;8.25;71.61;99562.81;5049714;28;19924;-61
2021/12/06 12:43:45;;;;;;;;;;;;;;;8.32;72.24;99558.97;5050965;28;20381;-61
2021/12/06 12:46:17;;;;;;;;;;;;;;;8.46;72.86;99555.59;5051327;28;20391;-60
2021/12/06 12:48:46;;;;;;;;;;;;;;;8.60;73.27;99547.06;5050760;28;20023;-60
2021/12/06 12:51:15;;;;;;;;;;;;;;;8.77;73.36;99550.56;5049667;28;20276;-60
2021/12/06 12:54:02;;;;;;;;;;;;;;;8.89;71.19;99546.44;5049814;28;19951;-60
2021/12/06 12:56:29;;;;;;;;;;;;;;;9.01;72.25;99539.69;5051060;28;19925;-59
2021/12/06 12:58:55;;;;;;;;;;;;;;;9.12;72.63;99537.34;5051239;28;19929;-62
2021/12/06 13:01:23;;;;;;;;;;;;;;;9.24;72.82;99538.44;5050686;28;20369;-59
2021/12/06 13:03:55;;;;;;;;;;;;;;;9.35;72.80;99522.06;5051130;28;19927;-59
2021/12/06 13:06:32;;;;;;;;;;;;;;;9.44;71.80;99525.13;5050830;28;19921;-60
2021/12/06 13:09:01;;;;;;;;;;;;;;;9.48;71.07;99522.25;5050908;28;19954;-60
2021/12/06 13:11:36;;;;;;;;;;;;;;;9.48;70.68;99522.25;5050590;28;19990;-62
2021/12/06 13:14:04;;;;;;;;;;;;;;;9.46;70.43;99518.84;5050918;28;19920;-59
2021/12/06 13:16:47;;;;;;;;;;;;;;;9.45;71.06;99509.28;5049592;28;19932;-59